sensor_id;sensor_type;location;lat;lon;timestamp;temperature;humidity
2012;DHT22;1009;51.436;6.972;2023-06-14T00:00:28;20.40;93.70
2012;DHT22;1009;51.436;6.972;2023-06-14T00:03:05;20.40;94.40
2012;DHT22;1009;51.436;6.972;2023-06-14T00:05:34;20.50;93.60
2012;DHT22;1009;51.436;6.972;2023-06-14T00:08:05;20.50;93.70
2012;DHT22;1009;51.436;6.972;2023-06-14T00:10:33;20.50;93.10
2012;DHT22;1009;51.436;6.972;2023-06-14T00:13:01;20.50;92.70
2012;DHT22;1009;51.436;6.972;2023-06-14T00:15:28;20.50;91.70
2012;DHT22;1009;51.436;6.972;2023-06-14T00:18:13;20.40;92.00
2012;DHT22;1009;51.436;6.972;2023-06-14T00:20:40;20.40;92.40
2012;DHT22;1009;51.436;6.972;2023-06-14T00:23:08;20.30;93.30
2012;DHT22;1009;51.436;6.972;2023-06-14T00:25:38;20.20;96.30
2012;DHT22;1009;51.436;6.972;2023-06-14T00:28:04;20.20;99.90
2012;DHT22;1009;51.436;6.972;2023-06-14T00:30:32;20.10;99.90
2012;DHT22;1009;51.436;6.972;2023-06-14T00:32:59;20.10;99.90
2012;DHT22;1009;51.436;6.972;2023-06-14T00:35:29;20.00;99.10
2012;DHT22;1009;51.436;6.972;2023-06-14T00:38:01;19.90;99.90
2012;DHT22;1009;51.436;6.972;2023-06-14T00:40:29;19.90;98.40
2012;DHT22;1009;51.436;6.972;2023-06-14T00:42:56;19.80;99.10
2012;DHT22;1009;51.436;6.972;2023-06-14T00:45:23;19.70;99.30
2012;DHT22;1009;51.436;6.972;2023-06-14T00:47:50;19.70;99.10
2012;DHT22;1009;51.436;6.972;2023-06-14T00:50:20;19.70;99.00
2012;DHT22;1009;51.436;6.972;2023-06-14T00:52:48;19.80;98.80
2012;DHT22;1009;51.436;6.972;2023-06-14T00:55:16;19.70;99.90
2012;DHT22;1009;51.436;6.972;2023-06-14T00:57:44;19.60;99.90
2012;DHT22;1009;51.436;6.972;2023-06-14T01:00:12;19.50;99.90
2012;DHT22;1009;51.436;6.972;2023-06-14T01:02:40;19.40;99.90
2012;DHT22;1009;51.436;6.972;2023-06-14T01:05:08;19.30;99.60
2012;DHT22;1009;51.436;6.972;2023-06-14T01:07:43;19.20;99.90
2012;DHT22;1009;51.436;6.972;2023-06-14T01:10:26;19.10;99.90
2012;DHT22;1009;51.436;6.972;2023-06-14T01:13:07;19.20;99.90
2012;DHT22;1009;51.436;6.972;2023-06-14T01:15:37;19.20;99.90
2012;DHT22;1009;51.436;6.972;2023-06-14T01:18:05;19.20;99.90
2012;DHT22;1009;51.436;6.972;2023-06-14T01:20:33;19.20;99.90
2012;DHT22;1009;51.436;6.972;2023-06-14T01:23:03;19.10;99.60
2012;DHT22;1009;51.436;6.972;2023-06-14T01:25:30;19.10;99.90
2012;DHT22;1009;51.436;6.972;2023-06-14T01:27:59;19.10;99.90
2012;DHT22;1009;51.436;6.972;2023-06-14T01:30:27;19.00;99.90
2012;DHT22;1009;51.436;6.972;2023-06-14T01:32:57;19.00;99.90
2012;DHT22;1009;51.436;6.972;2023-06-14T01:35:24;19.10;99.90
2012;DHT22;1009;51.436;6.972;2023-06-14T01:37:51;19.10;99.80
2012;DHT22;1009;51.436;6.972;2023-06-14T01:40:21;19.10;99.90
2012;DHT22;1009;51.436;6.972;2023-06-14T01:42:50;19.00;98.90
2012;DHT22;1009;51.436;6.972;2023-06-14T01:45:18;19.00;99.20
2012;DHT22;1009;51.436;6.972;2023-06-14T01:47:46;18.90;98.50
2012;DHT22;1009;51.436;6.972;2023-06-14T01:50:13;19.00;98.50
2012;DHT22;1009;51.436;6.972;2023-06-14T01:52:40;19.00;98.60
2012;DHT22;1009;51.436;6.972;2023-06-14T01:55:07;18.90;99.90
2012;DHT22;1009;51.436;6.972;2023-06-14T01:57:36;19.00;98.90
2012;DHT22;1009;51.436;6.972;2023-06-14T02:00:03;19.00;99.70
2012;DHT22;1009;51.436;6.972;2023-06-14T02:02:30;19.00;99.60
2012;DHT22;1009;51.436;6.972;2023-06-14T02:04:56;18.90;99.90
2012;DHT22;1009;51.436;6.972;2023-06-14T02:07:23;18.90;99.90
2012;DHT22;1009;51.436;6.972;2023-06-14T02:09:50;18.90;99.90
2012;DHT22;1009;51.436;6.972;2023-06-14T02:12:17;18.80;99.90
2012;DHT22;1009;51.436;6.972;2023-06-14T02:14:45;18.90;99.90
2012;DHT22;1009;51.436;6.972;2023-06-14T02:17:12;18.90;99.40
2012;DHT22;1009;51.436;6.972;2023-06-14T02:19:38;18.80;99.90
2012;DHT22;1009;51.436;6.972;2023-06-14T02:22:06;18.80;99.90
2012;DHT22;1009;51.436;6.972;2023-06-14T02:24:32;18.80;99.60
2012;DHT22;1009;51.436;6.972;2023-06-14T02:26:59;18.80;99.10
2012;DHT22;1009;51.436;6.972;2023-06-14T02:29:26;18.70;99.90
2012;DHT22;1009;51.436;6.972;2023-06-14T02:31:54;18.70;99.60
2012;DHT22;1009;51.436;6.972;2023-06-14T02:34:21;18.60;99.60
2012;DHT22;1009;51.436;6.972;2023-06-14T02:36:47;18.60;99.80
2012;DHT22;1009;51.436;6.972;2023-06-14T02:39:15;18.60;99.50
2012;DHT22;1009;51.436;6.972;2023-06-14T02:41:43;18.40;99.40
2012;DHT22;1009;51.436;6.972;2023-06-14T02:44:10;18.40;99.90
2012;DHT22;1009;51.436;6.972;2023-06-14T02:46:38;18.40;99.90
2012;DHT22;1009;51.436;6.972;2023-06-14T02:49:06;18.40;99.90
2012;DHT22;1009;51.436;6.972;2023-06-14T02:51:33;18.50;99.90
2012;DHT22;1009;51.436;6.972;2023-06-14T02:53:59;18.50;99.90
2012;DHT22;1009;51.436;6.972;2023-06-14T02:56:26;18.50;99.90
2012;DHT22;1009;51.436;6.972;2023-06-14T02:58:53;18.50;99.70
2012;DHT22;1009;51.436;6.972;2023-06-14T03:01:20;18.50;99.90
2012;DHT22;1009;51.436;6.972;2023-06-14T03:03:47;18.40;99.90
2012;DHT22;1009;51.436;6.972;2023-06-14T03:06:15;18.30;99.50
2012;DHT22;1009;51.436;6.972;2023-06-14T03:08:42;18.30;99.90
2012;DHT22;1009;51.436;6.972;2023-06-14T03:11:09;18.20;99.90
2012;DHT22;1009;51.436;6.972;2023-06-14T03:13:36;18.20;99.90
2012;DHT22;1009;51.436;6.972;2023-06-14T03:16:04;18.20;99.90
2012;DHT22;1009;51.436;6.972;2023-06-14T03:18:32;18.20;99.90
2012;DHT22;1009;51.436;6.972;2023-06-14T03:21:00;18.20;99.90
2012;DHT22;1009;51.436;6.972;2023-06-14T03:23:29;18.20;99.90
2012;DHT22;1009;51.436;6.972;2023-06-14T03:25:56;18.30;99.90
2012;DHT22;1009;51.436;6.972;2023-06-14T03:28:23;18.20;99.90
2012;DHT22;1009;51.436;6.972;2023-06-14T03:30:50;18.20;99.90
2012;DHT22;1009;51.436;6.972;2023-06-14T03:33:17;18.20;99.90
2012;DHT22;1009;51.436;6.972;2023-06-14T03:35:43;18.00;99.90
2012;DHT22;1009;51.436;6.972;2023-06-14T03:38:10;18.00;99.90
2012;DHT22;1009;51.436;6.972;2023-06-14T03:40:38;18.00;99.90
2012;DHT22;1009;51.436;6.972;2023-06-14T03:43:05;18.00;99.90
2012;DHT22;1009;51.436;6.972;2023-06-14T03:45:31;17.90;99.90
2012;DHT22;1009;51.436;6.972;2023-06-14T03:47:58;17.90;99.90
2012;DHT22;1009;51.436;6.972;2023-06-14T03:50:26;18.00;99.90
2012;DHT22;1009;51.436;6.972;2023-06-14T03:52:53;18.00;99.90
2012;DHT22;1009;51.436;6.972;2023-06-14T03:55:20;17.90;99.90
2012;DHT22;1009;51.436;6.972;2023-06-14T03:57:48;17.90;99.90
2012;DHT22;1009;51.436;6.972;2023-06-14T04:00:15;17.90;99.90
2012;DHT22;1009;51.436;6.972;2023-06-14T04:02:42;17.80;99.90
2012;DHT22;1009;51.436;6.972;2023-06-14T04:05:09;17.70;99.90
2012;DHT22;1009;51.436;6.972;2023-06-14T04:07:36;17.60;99.90
2012;DHT22;1009;51.436;6.972;2023-06-14T04:10:06;17.50;99.90
2012;DHT22;1009;51.436;6.972;2023-06-14T04:12:33;17.50;99.90
2012;DHT22;1009;51.436;6.972;2023-06-14T04:15:04;17.60;99.90
2012;DHT22;1009;51.436;6.972;2023-06-14T04:17:33;17.60;99.90
2012;DHT22;1009;51.436;6.972;2023-06-14T04:20:00;17.60;99.90
2012;DHT22;1009;51.436;6.972;2023-06-14T04:22:29;17.60;99.90
2012;DHT22;1009;51.436;6.972;2023-06-14T04:24:56;17.60;99.90
2012;DHT22;1009;51.436;6.972;2023-06-14T04:27:23;17.50;99.90
2012;DHT22;1009;51.436;6.972;2023-06-14T04:29:51;17.50;99.90
2012;DHT22;1009;51.436;6.972;2023-06-14T04:32:24;17.50;99.90
2012;DHT22;1009;51.436;6.972;2023-06-14T04:34:52;17.50;99.90
2012;DHT22;1009;51.436;6.972;2023-06-14T04:37:19;17.50;99.90
2012;DHT22;1009;51.436;6.972;2023-06-14T04:39:46;17.50;99.90
2012;DHT22;1009;51.436;6.972;2023-06-14T04:42:13;17.60;99.90
2012;DHT22;1009;51.436;6.972;2023-06-14T04:44:48;17.60;99.90
2012;DHT22;1009;51.436;6.972;2023-06-14T04:47:15;17.60;99.90
2012;DHT22;1009;51.436;6.972;2023-06-14T04:49:44;17.60;99.90
2012;DHT22;1009;51.436;6.972;2023-06-14T04:52:11;17.70;99.90
2012;DHT22;1009;51.436;6.972;2023-06-14T04:54:38;17.70;99.90
2012;DHT22;1009;51.436;6.972;2023-06-14T04:57:07;17.70;99.90
2012;DHT22;1009;51.436;6.972;2023-06-14T04:59:34;17.70;99.90
2012;DHT22;1009;51.436;6.972;2023-06-14T05:02:02;17.80;99.90
2012;DHT22;1009;51.436;6.972;2023-06-14T05:04:29;17.80;99.90
2012;DHT22;1009;51.436;6.972;2023-06-14T05:06:57;17.80;99.90
2012;DHT22;1009;51.436;6.972;2023-06-14T05:09:23;17.90;99.90
2012;DHT22;1009;51.436;6.972;2023-06-14T05:11:50;18.00;99.90
2012;DHT22;1009;51.436;6.972;2023-06-14T05:14:17;18.00;99.90
2012;DHT22;1009;51.436;6.972;2023-06-14T05:16:44;18.10;99.90
2012;DHT22;1009;51.436;6.972;2023-06-14T05:19:11;18.00;99.90
2012;DHT22;1009;51.436;6.972;2023-06-14T05:21:38;18.10;99.90
2012;DHT22;1009;51.436;6.972;2023-06-14T05:24:06;18.20;99.90
2012;DHT22;1009;51.436;6.972;2023-06-14T05:26:34;18.30;99.90
2012;DHT22;1009;51.436;6.972;2023-06-14T05:29:01;18.40;99.90
2012;DHT22;1009;51.436;6.972;2023-06-14T05:31:28;18.30;99.90
2012;DHT22;1009;51.436;6.972;2023-06-14T05:33:55;18.30;99.90
2012;DHT22;1009;51.436;6.972;2023-06-14T05:36:22;18.30;99.90
2012;DHT22;1009;51.436;6.972;2023-06-14T05:38:49;18.30;99.90
2012;DHT22;1009;51.436;6.972;2023-06-14T05:41:17;18.50;99.90
2012;DHT22;1009;51.436;6.972;2023-06-14T05:43:46;18.60;99.90
2012;DHT22;1009;51.436;6.972;2023-06-14T05:46:13;18.60;99.90
2012;DHT22;1009;51.436;6.972;2023-06-14T05:48:40;18.70;99.90
2012;DHT22;1009;51.436;6.972;2023-06-14T05:51:07;18.80;99.90
2012;DHT22;1009;51.436;6.972;2023-06-14T05:53:34;18.90;99.90
2012;DHT22;1009;51.436;6.972;2023-06-14T05:56:01;19.10;99.90
2012;DHT22;1009;51.436;6.972;2023-06-14T05:58:29;19.10;99.90
2012;DHT22;1009;51.436;6.972;2023-06-14T06:00:56;19.20;99.90
2012;DHT22;1009;51.436;6.972;2023-06-14T06:03:23;19.40;99.90
2012;DHT22;1009;51.436;6.972;2023-06-14T06:05:50;19.40;99.90
2012;DHT22;1009;51.436;6.972;2023-06-14T06:08:16;19.60;99.90
2012;DHT22;1009;51.436;6.972;2023-06-14T06:10:43;19.60;99.90
2012;DHT22;1009;51.436;6.972;2023-06-14T06:13:10;19.70;99.90
2012;DHT22;1009;51.436;6.972;2023-06-14T06:15:38;19.70;99.90
2012;DHT22;1009;51.436;6.972;2023-06-14T06:18:05;19.80;99.90
2012;DHT22;1009;51.436;6.972;2023-06-14T06:20:32;19.90;99.90
2012;DHT22;1009;51.436;6.972;2023-06-14T06:22:59;19.90;99.90
2012;DHT22;1009;51.436;6.972;2023-06-14T06:25:26;20.00;99.90
2012;DHT22;1009;51.436;6.972;2023-06-14T06:27:53;20.10;99.90
2012;DHT22;1009;51.436;6.972;2023-06-14T06:30:20;20.20;99.90
2012;DHT22;1009;51.436;6.972;2023-06-14T06:32:48;20.30;99.90
2012;DHT22;1009;51.436;6.972;2023-06-14T06:35:16;20.50;99.90
2012;DHT22;1009;51.436;6.972;2023-06-14T06:37:43;20.50;99.90
2012;DHT22;1009;51.436;6.972;2023-06-14T06:40:10;20.60;99.90
2012;DHT22;1009;51.436;6.972;2023-06-14T06:42:38;20.70;99.90
2012;DHT22;1009;51.436;6.972;2023-06-14T06:45:05;20.70;99.90
2012;DHT22;1009;51.436;6.972;2023-06-14T06:47:32;20.70;99.60
2012;DHT22;1009;51.436;6.972;2023-06-14T06:50:00;20.80;99.10
2012;DHT22;1009;51.436;6.972;2023-06-14T06:52:27;20.80;97.90
2012;DHT22;1009;51.436;6.972;2023-06-14T06:54:54;20.90;97.10
2012;DHT22;1009;51.436;6.972;2023-06-14T06:57:21;21.10;96.70
2012;DHT22;1009;51.436;6.972;2023-06-14T06:59:48;21.10;96.40
2012;DHT22;1009;51.436;6.972;2023-06-14T07:02:15;21.20;95.10
2012;DHT22;1009;51.436;6.972;2023-06-14T07:04:42;21.20;93.80
2012;DHT22;1009;51.436;6.972;2023-06-14T07:07:10;21.30;92.80
2012;DHT22;1009;51.436;6.972;2023-06-14T07:09:37;21.30;94.10
2012;DHT22;1009;51.436;6.972;2023-06-14T07:12:04;21.50;95.30
2012;DHT22;1009;51.436;6.972;2023-06-14T07:14:32;21.70;95.80
2012;DHT22;1009;51.436;6.972;2023-06-14T07:16:58;21.80;95.70
2012;DHT22;1009;51.436;6.972;2023-06-14T07:19:25;21.80;94.80
2012;DHT22;1009;51.436;6.972;2023-06-14T07:21:52;21.90;94.70
2012;DHT22;1009;51.436;6.972;2023-06-14T07:24:20;21.80;96.10
2012;DHT22;1009;51.436;6.972;2023-06-14T07:26:47;21.70;94.80
2012;DHT22;1009;51.436;6.972;2023-06-14T07:29:14;21.70;95.80
2012;DHT22;1009;51.436;6.972;2023-06-14T07:31:42;21.90;95.00
2012;DHT22;1009;51.436;6.972;2023-06-14T07:34:08;21.90;91.30
2012;DHT22;1009;51.436;6.972;2023-06-14T07:36:35;22.10;91.00
2012;DHT22;1009;51.436;6.972;2023-06-14T07:39:03;22.00;92.80
2012;DHT22;1009;51.436;6.972;2023-06-14T07:41:33;22.10;92.50
2012;DHT22;1009;51.436;6.972;2023-06-14T07:44:00;22.20;93.70
2012;DHT22;1009;51.436;6.972;2023-06-14T07:46:26;22.10;94.00
2012;DHT22;1009;51.436;6.972;2023-06-14T07:48:53;22.10;90.10
2012;DHT22;1009;51.436;6.972;2023-06-14T07:51:20;22.20;91.10
2012;DHT22;1009;51.436;6.972;2023-06-14T07:53:48;22.40;91.60
2012;DHT22;1009;51.436;6.972;2023-06-14T07:56:14;22.50;92.50
2012;DHT22;1009;51.436;6.972;2023-06-14T07:58:42;22.30;90.20
2012;DHT22;1009;51.436;6.972;2023-06-14T08:01:09;22.20;90.80
2012;DHT22;1009;51.436;6.972;2023-06-14T08:03:37;22.20;91.20
2012;DHT22;1009;51.436;6.972;2023-06-14T08:06:03;22.20;92.30
2012;DHT22;1009;51.436;6.972;2023-06-14T08:08:31;22.30;91.20
2012;DHT22;1009;51.436;6.972;2023-06-14T08:10:58;22.30;91.60
2012;DHT22;1009;51.436;6.972;2023-06-14T08:13:24;22.30;90.80
2012;DHT22;1009;51.436;6.972;2023-06-14T08:15:53;22.30;91.60
2012;DHT22;1009;51.436;6.972;2023-06-14T08:18:20;22.60;91.70
2012;DHT22;1009;51.436;6.972;2023-06-14T08:20:47;22.60;93.00
2012;DHT22;1009;51.436;6.972;2023-06-14T08:23:14;22.70;92.40
2012;DHT22;1009;51.436;6.972;2023-06-14T08:25:41;22.70;90.50
2012;DHT22;1009;51.436;6.972;2023-06-14T08:28:08;22.70;90.60
2012;DHT22;1009;51.436;6.972;2023-06-14T08:30:34;22.70;91.60
2012;DHT22;1009;51.436;6.972;2023-06-14T08:33:02;22.60;90.20
2012;DHT22;1009;51.436;6.972;2023-06-14T08:35:29;22.40;89.30
2012;DHT22;1009;51.436;6.972;2023-06-14T08:37:56;22.40;90.10
2012;DHT22;1009;51.436;6.972;2023-06-14T08:40:23;22.50;92.20
2012;DHT22;1009;51.436;6.972;2023-06-14T08:42:51;22.70;89.40
2012;DHT22;1009;51.436;6.972;2023-06-14T08:45:18;22.60;88.70
2012;DHT22;1009;51.436;6.972;2023-06-14T08:47:46;22.50;89.00
2012;DHT22;1009;51.436;6.972;2023-06-14T08:50:20;22.50;90.40
2012;DHT22;1009;51.436;6.972;2023-06-14T08:52:48;22.50;88.10
2012;DHT22;1009;51.436;6.972;2023-06-14T08:55:18;22.40;90.40
2012;DHT22;1009;51.436;6.972;2023-06-14T08:57:46;22.60;90.50
2012;DHT22;1009;51.436;6.972;2023-06-14T09:00:15;22.80;90.00
2012;DHT22;1009;51.436;6.972;2023-06-14T09:02:42;22.90;90.00
2012;DHT22;1009;51.436;6.972;2023-06-14T09:05:09;23.00;85.60
2012;DHT22;1009;51.436;6.972;2023-06-14T09:07:40;23.20;86.80
2012;DHT22;1009;51.436;6.972;2023-06-14T09:10:08;23.30;88.40
2012;DHT22;1009;51.436;6.972;2023-06-14T09:12:35;23.40;86.20
2012;DHT22;1009;51.436;6.972;2023-06-14T09:15:03;23.40;87.20
2012;DHT22;1009;51.436;6.972;2023-06-14T09:17:32;23.20;85.20
2012;DHT22;1009;51.436;6.972;2023-06-14T09:20:01;22.90;82.60
2012;DHT22;1009;51.436;6.972;2023-06-14T09:22:30;22.70;81.70
2012;DHT22;1009;51.436;6.972;2023-06-14T09:24:58;22.70;82.20
2012;DHT22;1009;51.436;6.972;2023-06-14T09:27:25;22.80;84.00
2012;DHT22;1009;51.436;6.972;2023-06-14T09:29:53;23.00;80.40
2012;DHT22;1009;51.436;6.972;2023-06-14T09:32:20;23.20;81.50
2012;DHT22;1009;51.436;6.972;2023-06-14T09:34:47;23.60;81.30
2012;DHT22;1009;51.436;6.972;2023-06-14T09:37:26;23.60;77.50
2012;DHT22;1009;51.436;6.972;2023-06-14T09:39:54;23.50;81.40
2012;DHT22;1009;51.436;6.972;2023-06-14T09:42:22;23.40;78.60
2012;DHT22;1009;51.436;6.972;2023-06-14T09:44:52;23.30;77.40
2012;DHT22;1009;51.436;6.972;2023-06-14T09:47:19;23.10;81.40
2012;DHT22;1009;51.436;6.972;2023-06-14T09:49:46;23.10;76.30
2012;DHT22;1009;51.436;6.972;2023-06-14T09:52:15;23.20;80.80
2012;DHT22;1009;51.436;6.972;2023-06-14T09:54:43;23.40;77.20
2012;DHT22;1009;51.436;6.972;2023-06-14T09:57:12;23.60;75.90
2012;DHT22;1009;51.436;6.972;2023-06-14T09:59:42;23.90;76.80
2012;DHT22;1009;51.436;6.972;2023-06-14T10:02:14;23.80;77.10
2012;DHT22;1009;51.436;6.972;2023-06-14T10:04:46;23.60;76.20
2012;DHT22;1009;51.436;6.972;2023-06-14T10:07:19;23.60;76.20
2012;DHT22;1009;51.436;6.972;2023-06-14T10:09:47;23.90;73.20
2012;DHT22;1009;51.436;6.972;2023-06-14T10:12:16;24.00;76.30
2012;DHT22;1009;51.436;6.972;2023-06-14T10:14:49;24.20;73.00
2012;DHT22;1009;51.436;6.972;2023-06-14T10:17:26;24.50;74.00
2012;DHT22;1009;51.436;6.972;2023-06-14T10:19:58;24.60;76.90
2012;DHT22;1009;51.436;6.972;2023-06-14T10:22:34;24.50;73.40
2012;DHT22;1009;51.436;6.972;2023-06-14T10:25:02;24.50;72.80
2012;DHT22;1009;51.436;6.972;2023-06-14T10:27:37;24.50;72.50
2012;DHT22;1009;51.436;6.972;2023-06-14T10:30:07;24.60;71.60
2012;DHT22;1009;51.436;6.972;2023-06-14T10:32:34;24.20;67.40
2012;DHT22;1009;51.436;6.972;2023-06-14T10:35:04;24.00;68.00
2012;DHT22;1009;51.436;6.972;2023-06-14T10:37:32;24.00;68.80
2012;DHT22;1009;51.436;6.972;2023-06-14T10:39:58;24.20;68.90
2012;DHT22;1009;51.436;6.972;2023-06-14T10:42:29;24.20;69.50
2012;DHT22;1009;51.436;6.972;2023-06-14T10:44:58;24.20;70.60
2012;DHT22;1009;51.436;6.972;2023-06-14T10:47:30;24.50;70.60
2012;DHT22;1009;51.436;6.972;2023-06-14T10:50:03;24.80;71.50
2012;DHT22;1009;51.436;6.972;2023-06-14T10:52:33;25.00;71.00
2012;DHT22;1009;51.436;6.972;2023-06-14T10:55:06;25.20;72.40
2012;DHT22;1009;51.436;6.972;2023-06-14T10:57:35;25.20;70.10
2012;DHT22;1009;51.436;6.972;2023-06-14T11:00:03;25.30;71.40
2012;DHT22;1009;51.436;6.972;2023-06-14T11:05:43;25.70;67.60
2012;DHT22;1009;51.436;6.972;2023-06-14T11:08:27;25.80;69.50
2012;DHT22;1009;51.436;6.972;2023-06-14T11:11:00;25.80;66.60
2012;DHT22;1009;51.436;6.972;2023-06-14T11:13:27;25.80;69.10
2012;DHT22;1009;51.436;6.972;2023-06-14T11:15:54;25.50;65.70
2012;DHT22;1009;51.436;6.972;2023-06-14T11:18:24;25.50;68.40
2012;DHT22;1009;51.436;6.972;2023-06-14T11:20:53;25.80;67.20
2012;DHT22;1009;51.436;6.972;2023-06-14T11:23:21;26.00;69.40
2012;DHT22;1009;51.436;6.972;2023-06-14T11:25:50;25.80;68.30
2012;DHT22;1009;51.436;6.972;2023-06-14T11:28:16;25.30;66.70
2012;DHT22;1009;51.436;6.972;2023-06-14T11:30:45;25.30;68.60
2012;DHT22;1009;51.436;6.972;2023-06-14T11:33:16;25.10;70.00
2012;DHT22;1009;51.436;6.972;2023-06-14T11:35:45;25.30;72.10
2012;DHT22;1009;51.436;6.972;2023-06-14T11:38:12;25.60;66.90
2012;DHT22;1009;51.436;6.972;2023-06-14T11:40:39;25.90;69.30
2012;DHT22;1009;51.436;6.972;2023-06-14T11:43:05;25.50;66.70
2012;DHT22;1009;51.436;6.972;2023-06-14T11:45:32;25.30;66.60
2012;DHT22;1009;51.436;6.972;2023-06-14T11:47:59;25.40;69.70
2012;DHT22;1009;51.436;6.972;2023-06-14T11:50:26;25.40;71.20
2012;DHT22;1009;51.436;6.972;2023-06-14T11:52:55;25.50;69.10
2012;DHT22;1009;51.436;6.972;2023-06-14T11:55:23;25.30;68.30
2012;DHT22;1009;51.436;6.972;2023-06-14T11:57:50;25.50;70.00
2012;DHT22;1009;51.436;6.972;2023-06-14T12:00:18;25.20;68.80
2012;DHT22;1009;51.436;6.972;2023-06-14T12:02:52;25.60;74.30
2012;DHT22;1009;51.436;6.972;2023-06-14T12:05:21;25.90;69.80
2012;DHT22;1009;51.436;6.972;2023-06-14T12:07:48;26.10;69.60
2012;DHT22;1009;51.436;6.972;2023-06-14T12:10:17;25.80;68.00
2012;DHT22;1009;51.436;6.972;2023-06-14T12:12:44;26.00;68.60
2012;DHT22;1009;51.436;6.972;2023-06-14T12:15:11;25.90;68.00
2012;DHT22;1009;51.436;6.972;2023-06-14T12:17:39;26.00;68.90
2012;DHT22;1009;51.436;6.972;2023-06-14T12:20:09;26.00;71.10
2012;DHT22;1009;51.436;6.972;2023-06-14T12:22:39;26.20;68.10
2012;DHT22;1009;51.436;6.972;2023-06-14T12:25:06;26.60;68.40
2012;DHT22;1009;51.436;6.972;2023-06-14T12:27:39;26.80;67.70
2012;DHT22;1009;51.436;6.972;2023-06-14T12:30:07;26.60;68.80
2012;DHT22;1009;51.436;6.972;2023-06-14T12:32:34;26.80;67.80
2012;DHT22;1009;51.436;6.972;2023-06-14T12:35:01;27.10;66.10
2012;DHT22;1009;51.436;6.972;2023-06-14T12:37:28;27.10;68.90
2012;DHT22;1009;51.436;6.972;2023-06-14T12:39:55;27.20;66.20
2012;DHT22;1009;51.436;6.972;2023-06-14T12:42:21;27.30;64.20
2012;DHT22;1009;51.436;6.972;2023-06-14T12:44:49;27.60;62.50
2012;DHT22;1009;51.436;6.972;2023-06-14T12:47:16;27.50;61.00
2012;DHT22;1009;51.436;6.972;2023-06-14T12:49:43;27.60;59.60
2012;DHT22;1009;51.436;6.972;2023-06-14T12:52:10;27.50;62.10
2012;DHT22;1009;51.436;6.972;2023-06-14T12:54:37;27.60;61.40
2012;DHT22;1009;51.436;6.972;2023-06-14T12:57:05;27.70;59.60
2012;DHT22;1009;51.436;6.972;2023-06-14T12:59:32;27.50;64.00
2012;DHT22;1009;51.436;6.972;2023-06-14T13:02:10;27.60;63.50
2012;DHT22;1009;51.436;6.972;2023-06-14T13:04:37;27.60;58.20
2012;DHT22;1009;51.436;6.972;2023-06-14T13:07:05;27.50;58.30
2012;DHT22;1009;51.436;6.972;2023-06-14T13:09:32;27.50;59.10
2012;DHT22;1009;51.436;6.972;2023-06-14T13:11:58;27.60;59.70
2012;DHT22;1009;51.436;6.972;2023-06-14T13:14:25;27.70;60.80
2012;DHT22;1009;51.436;6.972;2023-06-14T13:16:52;27.50;62.70
2012;DHT22;1009;51.436;6.972;2023-06-14T13:19:20;27.90;62.30
2012;DHT22;1009;51.436;6.972;2023-06-14T13:21:48;27.90;59.90
2012;DHT22;1009;51.436;6.972;2023-06-14T13:24:14;27.50;58.70
2012;DHT22;1009;51.436;6.972;2023-06-14T13:26:42;27.00;58.30
2012;DHT22;1009;51.436;6.972;2023-06-14T13:29:09;26.80;60.60
2012;DHT22;1009;51.436;6.972;2023-06-14T13:31:35;26.80;60.00
2012;DHT22;1009;51.436;6.972;2023-06-14T13:34:02;26.90;60.30
2012;DHT22;1009;51.436;6.972;2023-06-14T13:36:31;27.10;61.00
2012;DHT22;1009;51.436;6.972;2023-06-14T13:38:58;26.90;63.60
2012;DHT22;1009;51.436;6.972;2023-06-14T13:41:25;27.10;61.90
2012;DHT22;1009;51.436;6.972;2023-06-14T13:43:57;27.00;60.50
2012;DHT22;1009;51.436;6.972;2023-06-14T13:46:24;27.00;59.40
2012;DHT22;1009;51.436;6.972;2023-06-14T13:48:51;26.70;60.90
2012;DHT22;1009;51.436;6.972;2023-06-14T13:51:18;26.80;59.80
2012;DHT22;1009;51.436;6.972;2023-06-14T13:53:47;26.80;58.40
2012;DHT22;1009;51.436;6.972;2023-06-14T13:56:16;26.30;58.60
2012;DHT22;1009;51.436;6.972;2023-06-14T13:58:43;26.00;59.60
2012;DHT22;1009;51.436;6.972;2023-06-14T14:01:11;26.10;59.50
2012;DHT22;1009;51.436;6.972;2023-06-14T14:03:38;26.20;63.50
2012;DHT22;1009;51.436;6.972;2023-06-14T14:06:04;26.70;60.70
2012;DHT22;1009;51.436;6.972;2023-06-14T14:08:32;26.70;57.90
2012;DHT22;1009;51.436;6.972;2023-06-14T14:11:00;27.10;57.90
2012;DHT22;1009;51.436;6.972;2023-06-14T14:13:27;27.30;57.50
2012;DHT22;1009;51.436;6.972;2023-06-14T14:15:54;27.50;58.80
2012;DHT22;1009;51.436;6.972;2023-06-14T14:18:20;27.50;56.90
2012;DHT22;1009;51.436;6.972;2023-06-14T14:20:47;27.50;58.30
2012;DHT22;1009;51.436;6.972;2023-06-14T14:23:14;27.40;58.70
2012;DHT22;1009;51.436;6.972;2023-06-14T14:25:41;27.10;58.40
2012;DHT22;1009;51.436;6.972;2023-06-14T14:28:09;26.70;58.80
2012;DHT22;1009;51.436;6.972;2023-06-14T14:30:36;26.60;58.60
2012;DHT22;1009;51.436;6.972;2023-06-14T14:33:05;26.40;59.10
2012;DHT22;1009;51.436;6.972;2023-06-14T14:35:32;26.30;58.80
2012;DHT22;1009;51.436;6.972;2023-06-14T14:37:58;26.50;58.10
2012;DHT22;1009;51.436;6.972;2023-06-14T14:40:25;26.70;60.20
2012;DHT22;1009;51.436;6.972;2023-06-14T14:42:52;27.00;58.30
2012;DHT22;1009;51.436;6.972;2023-06-14T14:45:20;27.10;59.10
2012;DHT22;1009;51.436;6.972;2023-06-14T14:47:47;27.20;58.60
2012;DHT22;1009;51.436;6.972;2023-06-14T14:50:14;26.80;58.60
2012;DHT22;1009;51.436;6.972;2023-06-14T14:52:41;26.70;57.20
2012;DHT22;1009;51.436;6.972;2023-06-14T14:55:08;26.60;58.70
2012;DHT22;1009;51.436;6.972;2023-06-14T14:57:35;26.50;59.40
2012;DHT22;1009;51.436;6.972;2023-06-14T15:00:03;26.20;58.00
2012;DHT22;1009;51.436;6.972;2023-06-14T15:02:32;26.10;60.50
2012;DHT22;1009;51.436;6.972;2023-06-14T15:04:58;26.10;59.10
2012;DHT22;1009;51.436;6.972;2023-06-14T15:07:26;26.10;59.30
2012;DHT22;1009;51.436;6.972;2023-06-14T15:09:53;26.00;62.00
2012;DHT22;1009;51.436;6.972;2023-06-14T15:12:20;26.00;61.20
2012;DHT22;1009;51.436;6.972;2023-06-14T15:14:50;25.60;59.80
2012;DHT22;1009;51.436;6.972;2023-06-14T15:17:17;25.30;59.80
2012;DHT22;1009;51.436;6.972;2023-06-14T15:19:46;25.10;61.20
2012;DHT22;1009;51.436;6.972;2023-06-14T15:22:13;25.10;61.20
2012;DHT22;1009;51.436;6.972;2023-06-14T15:24:40;24.90;60.20
2012;DHT22;1009;51.436;6.972;2023-06-14T15:27:07;24.80;60.10
2012;DHT22;1009;51.436;6.972;2023-06-14T15:29:34;24.70;62.80
2012;DHT22;1009;51.436;6.972;2023-06-14T15:32:01;24.30;61.90
2012;DHT22;1009;51.436;6.972;2023-06-14T15:34:28;24.20;63.80
2012;DHT22;1009;51.436;6.972;2023-06-14T15:36:56;24.30;61.50
2012;DHT22;1009;51.436;6.972;2023-06-14T15:39:23;24.60;63.30
2012;DHT22;1009;51.436;6.972;2023-06-14T15:41:50;24.70;61.70
2012;DHT22;1009;51.436;6.972;2023-06-14T15:44:17;24.70;61.30
2012;DHT22;1009;51.436;6.972;2023-06-14T15:46:44;24.50;60.90
2012;DHT22;1009;51.436;6.972;2023-06-14T15:49:12;24.30;62.50
2012;DHT22;1009;51.436;6.972;2023-06-14T15:51:39;24.40;63.00
2012;DHT22;1009;51.436;6.972;2023-06-14T15:54:07;24.60;63.30
2012;DHT22;1009;51.436;6.972;2023-06-14T15:56:35;24.70;62.30
2012;DHT22;1009;51.436;6.972;2023-06-14T15:59:01;24.70;60.60
2012;DHT22;1009;51.436;6.972;2023-06-14T16:01:28;24.70;61.30
2012;DHT22;1009;51.436;6.972;2023-06-14T16:03:55;24.80;60.10
2012;DHT22;1009;51.436;6.972;2023-06-14T16:06:22;24.80;59.60
2012;DHT22;1009;51.436;6.972;2023-06-14T16:08:49;24.90;62.20